• Join FlightAware (Why Join?)
  • Login
  • US Flag 
08:27PM EDT


 

Airport Tracker/Info


-or-


 

Live Flight TrackerFlight Track Log ✈ DAL268 ✈ 08-Oct-2013 ✈ KJFK - LLBG / TLV

Flight Track Log - Related Links

Times and Time Zones

All times are in EDT time to prevent confusion due to time zone crossing. See the DAL268 flight status page for this flight to view local times or setup timezone preferences in your user account.

Time Position Orientation Groundspeed Altitude Reporting Facility
EDT Latitude Longitude Course Direction KTS MPH feet Rate Location/Type
09:47PM 40.6330 -73.7720 270° West 88 101  Level FlightAware
09:48PM 40.6390 -73.7860 299° West 155 178 240 Level FlightAware
09:48PM 40.6480 -73.8070 299° West 182 209 360 Level FlightAware
09:48PM 40.6500 -73.8140 291° West 187 215 200 1,500 Climbing FlightAware
09:48PM 40.6510 -73.8190 285° West 191 220 300 1,500 Climbing FlightAware
09:48PM 40.6510 -73.8290 270° West 199 229 500 1,080 Climbing FlightAware
09:49PM 40.6490 -73.8380 254° West 206 237 600 1,080 Climbing FlightAware
09:49PM 40.6450 -73.8470 240° Southwest 210 242 800 1,500 Climbing FlightAware
09:49PM 40.6370 -73.8590 229° Southwest 212 244 1,100 1,860 Climbing FlightAware
09:49PM 40.6210 -73.8740 215° Southwest 211 243 1,800 1,680 Climbing FlightAware
09:50PM 40.6080 -73.8850 213° Southwest 211 243 2,100 1,260 Climbing FlightAware
09:50PM 40.6010 -73.8870 192° South 211 243 2,300 780 Climbing FlightAware
09:50PM 40.5820 -73.8790 162° South 216 249 2,500 840 Climbing FlightAware
09:50PM 40.5780 -73.8730 131° Southeast 211 243 2,700 1,860 Climbing FlightAware
09:50PM 40.5710 -73.8580 122° Southeast 204 235 3,100 1,680 Climbing FlightAware
09:50PM 40.5700 -73.8480 97° East 203 234 3,300 1,140 Climbing FlightAware
09:51PM 40.5740 -73.8120 82° East 221 254 3,800 960 Climbing FlightAware
09:51PM 40.5790 -73.7840 77° East 239 275 4,100 900 Climbing FlightAware
09:52PM 40.5840 -73.7550 77° East 258 297 4,400 1,020 Climbing FlightAware
09:52PM 40.5910 -73.7240 73° East 274 315 4,800 1,680 Climbing FlightAware
09:52PM 40.5980 -73.6830 77° East 283 326 5,700 2,160 Climbing FlightAware
09:53PM 40.6000 -73.6630 82° East 289 333 6,100 2,160 Climbing FlightAware
09:53PM 40.5910 -73.6120 103° East 302 348 7,200 2,100 Climbing FlightAware
09:53PM 40.5800 -73.5770 112° Southeast 306 352 7,900 2,040 Climbing FlightAware
09:54PM 40.5750 -73.5560 107° East 309 356 8,300 2,280 Climbing FlightAware
09:54PM 40.5670 -73.5090 103° East 314 361 9,300 2,280 Climbing FlightAware
09:54PM 40.5634 -73.4854 101° East 316 364 9,800 1,380 Climbing FlightAware ADS-B (KSNC)
09:55PM 40.5510 -73.4120 102° East 347 399 10,500 1,020 Climbing FlightAware
09:55PM 40.5430 -73.3540 100° East 369 425 10,900 900 Climbing FlightAware
09:56PM 40.5480 -73.2990 83° East 385 443 11,300 1,080 Climbing FlightAware
09:56PM 40.5566 -73.2428 79° East 405 466 11,800 1,560 Climbing FlightAware ADS-B (KSNC)
09:57PM 40.5741 -73.1365 78° East 422 486 13,000 1,740 Climbing FlightAware ADS-B (KSNC)
09:57PM 40.5870 -73.0550 78° East 429 494 14,000 1,920 Climbing FlightAware
09:58PM 40.5943 -73.0121 77° East 433 498 14,600 1,920 Climbing FlightAware ADS-B (KSNC)
09:58PM 40.6079 -72.9276 78° East 439 505 15,600 1,860 Climbing FlightAware ADS-B (KSNC)
09:59PM 40.6197 -72.8537 78° East 445 512 16,600 1,620 Climbing FlightAware ADS-B (KSNC)
09:59PM 40.6359 -72.7526 78° East 455 524 17,400 1,440 Climbing FlightAware ADS-B (KSNC)
10:00PM 40.6514 -72.6547 78° East 464 534 18,300 1,500 Climbing FlightAware ADS-B (KSNC)
10:00PM 40.6660 -72.5650 78° East 470 541 19,100 1,380 Climbing FlightAware
10:01PM 40.6700 -72.5377 79° East 474 545 19,300 1,200 Climbing FlightAware ADS-B (KSNC)
10:01PM 40.6761 -72.4983 78° East 484 557 20,200 1,260 Climbing FlightAware ADS-B (KSNC)
10:02PM 40.7120 -72.2680 78° East 493 567 21,300 1,320 Climbing FlightAware
10:03PM 40.7290 -72.1610 78° East 498 573 22,100 1,200 Climbing FlightAware
10:03PM 40.7306 -72.1483 81° East 499 574 22,200 1,320 Climbing FlightAware ADS-B (KSNC)
10:03PM 40.7450 -72.0520 79° East 503 579 22,900 1,320 Climbing FlightAware
10:04PM 40.7446 -72.0569 264° West 506 582 23,500 1,140 Climbing FlightAware ADS-B (KSNC)
10:04PM 40.7770 -71.8460 78° East 513 590 24,200 900 Climbing FlightAware
10:05PM 40.7940 -71.7310 79° East 521 600 24,700 900 Climbing FlightAware
10:06PM 40.8100 -71.6210 79° East 527 606 25,300 960 Climbing FlightAware
10:06PM 40.8260 -71.5170 78° East 533 613 25,800 900 Climbing FlightAware
10:07PM 40.8420 -71.4540 71° East 534 615 26,100 600 Climbing FlightAware
10:07PM 40.8720 -71.3840 60° Northeast 538 619 26,300 720 Climbing FlightAware
10:07PM 40.9250 -71.3020 49° Northeast 541 623 26,800 840 Climbing FlightAware
10:08PM 40.9820 -71.2160 49° Northeast 544 626 27,300 900 Climbing FlightAware
10:09PM 41.0440 -71.1230 49° Northeast 547 629 27,900 900 Climbing FlightAware
10:09PM 41.0980 -71.0420 48° Northeast 549 632 28,400 960 Climbing FlightAware
10:10PM 41.1600 -70.9490 48° Northeast 550 633 29,000 960 Climbing FlightAware
10:10PM 41.2180 -70.8610 49° Northeast 551 634 29,600 960 Climbing FlightAware
10:11PM 41.2800 -70.7660 49° Northeast 551 634 30,200 900 Climbing FlightAware
10:12PM 41.3380 -70.6780 49° Northeast 552 635 30,700 720 Climbing FlightAware
10:12PM 41.3850 -70.6060 49° Northeast 552 635 31,000 240 Climbing FlightAware
10:13PM 41.4510 -70.5040 49° Northeast 552 635 31,000  Level FlightAware
10:13PM 41.5130 -70.4090 49° Northeast 550 633 31,000  Level FlightAware
10:14PM 41.5650 -70.3290 49° Northeast 551 634 31,000 -120 Level FlightAware
10:15PM 41.6260 -70.2340 49° Northeast 545 627 30,900  Descending FlightAware
10:15PM 41.6717 -70.1614 50° Northeast 553 636 31,000  Climbing FlightAware ADS-B (KBOS)
10:16PM 41.7600 -70.0230 49° Northeast 555 639 30,900 -120 Descending FlightAware
10:16PM 41.8110 -69.9420 50° Northeast 556 640 30,900  Level FlightAware
10:17PM 41.8409 -69.8945 50° Northeast 558 642 30,900  Level FlightAware ADS-B (KBOS)
10:18PM 41.9311 -69.7514 50° Northeast 560 644 30,900  Level FlightAware ADS-B (KBOS)
10:18PM 41.9870 -69.6620 50° Northeast 559 643 30,900 60 Level FlightAware
10:19PM 42.0351 -69.5857 50° Northeast 559 643 31,000  Climbing FlightAware ADS-B (KBOS)
10:19PM 42.0915 -69.4952 50° Northeast 559 643 30,900  Descending FlightAware ADS-B (KBOS)
10:20PM 42.1385 -69.4198 50° Northeast 559 643 31,000  Climbing FlightAware ADS-B (KBOS)
10:20PM 42.1920 -69.3337 50° Northeast 560 644 30,900 -120 Descending FlightAware ADS-B (KBOS)
10:21PM 42.2449 -69.2479 50° Northeast 561 646 30,900 60 Level FlightAware ADS-B (KBOS)
10:21PM 42.2927 -69.1705 50° Northeast 561 646 31,000  Climbing FlightAware ADS-B (KBOS)
10:22PM 42.3459 -69.0842 50° Northeast 563 648 30,900 -120 Descending FlightAware ADS-B (KBOS)
10:22PM 42.4066 -68.9851 50° Northeast 563 648 30,900 60 Level FlightAware ADS-B (KBOS)
10:23PM 42.4851 -68.8564 50° Northeast 562 647 31,000  Climbing FlightAware ADS-B (CYQI)
10:24PM 42.5589 -68.7352 50° Northeast 564 649 30,900  Descending FlightAware ADS-B (CYQI)
10:25PM 42.6187 -68.6365 51° Northeast 565 650 31,000  Climbing FlightAware ADS-B (CYQI)
10:25PM 42.6500 -68.5910 47° Northeast 563 648 30,900 -120 Descending FlightAware
10:25PM 42.7202 -68.4681 52° Northeast 564 649 30,900  Level FlightAware ADS-B (CYQI)
10:26PM 42.7911 -68.3503 51° Northeast 564 649 30,900 60 Level FlightAware ADS-B (CYQI)
10:27PM 42.8502 -68.2514 51° Northeast 564 649 31,000 60 Climbing FlightAware ADS-B (CYQI)
10:27PM 42.9180 -68.1380 51° Northeast 561 646 31,000  Level FlightAware
10:28PM 42.9264 -68.1237 51° Northeast 560 644 31,000 -180 Level FlightAware ADS-B (CYQI)
10:28PM 42.9716 -68.0474 51° Northeast 557 641 30,900 -120 Descending FlightAware ADS-B (CYQI)
10:29PM 43.0180 -67.9690 51° Northeast 560 644 30,900  Level FlightAware
10:29PM 43.0572 -67.9025 51° Northeast 553 636 30,900  Level FlightAware ADS-B (CYQI)
10:30PM 43.1184 -67.7988 51° Northeast 551 634 30,900  Level FlightAware ADS-B (CYQI)
10:30PM 43.1730 -67.7054 51° Northeast 550 633 30,900  Level FlightAware ADS-B (CYQI)
10:31PM 43.2239 -67.6184 51° Northeast 548 631 30,900  Level FlightAware ADS-B (CYQI)
10:31PM 43.2727 -67.5349 51° Northeast 548 631 30,900  Level FlightAware ADS-B (CYQI)
10:32PM 43.3370 -67.4245 51° Northeast 549 632 30,900 60 Level FlightAware ADS-B (CYQI)
10:32PM 43.3880 -67.3370 51° Northeast 549 632 31,000 120 Climbing FlightAware
10:33PM 43.4209 -67.2793 52° Northeast 550 633 31,000 -120 Level FlightAware ADS-B (CYQI)
10:33PM 43.4827 -67.1725 51° Northeast 550 633 30,900 -120 Descending FlightAware ADS-B (CYQI)
10:34PM 43.5321 -67.0863 52° Northeast 550 633 30,900  Level FlightAware ADS-B (CYQI)
10:34PM 43.5751 -67.0154 50° Northeast 545 627 30,900 60 Level FlightAware ADS-B (CYQI)
10:35PM 43.6536 -66.9056 45° Northeast 542 624 31,000 60 Climbing FlightAware ADS-B (CYQI)
10:36PM 43.7236 -66.8132 44° Northeast 543 625 31,000 -120 Level FlightAware ADS-B (CYQI)
10:36PM 43.7778 -66.7418 44° Northeast 543 625 30,900  Descending FlightAware ADS-B (CYQI)
10:37PM 43.8447 -66.6538 43° Northeast 543 625 31,000 60 Climbing FlightAware ADS-B (CYQI)
10:37PM 43.8989 -66.5819 44° Northeast 543 625 31,000  Level FlightAware ADS-B (CYQI)
10:38PM 43.9633 -66.4965 44° Northeast 544 626 31,000 -120 Level FlightAware ADS-B (CYQI)
10:38PM 44.0185 -66.4225 44° Northeast 545 627 30,900  Descending FlightAware ADS-B (CYQI)
10:39PM 44.0881 -66.3291 44° Northeast 546 628 31,000  Climbing FlightAware ADS-B (CYQI)
10:40PM 44.1383 -66.2618 44° Northeast 546 628 30,900  Descending FlightAware ADS-B (CYQI)
10:40PM 44.2027 -66.1750 44° Northeast 546 628 31,000 60 Climbing FlightAware ADS-B (CYQI)
10:41PM 44.2534 -66.1064 44° Northeast 546 628 31,000 -120 Level FlightAware ADS-B (CYQI)
10:41PM 44.3106 -66.0288 44° Northeast 546 628 30,900  Descending FlightAware ADS-B (CYQI)
10:42PM 44.3638 -65.9565 44° Northeast 545 627 31,000  Climbing FlightAware ADS-B (CYQI)
10:42PM 44.4202 -65.8791 44° Northeast 543 625 30,900  Descending FlightAware ADS-B (CYQI)
10:43PM 44.5134 -65.7517 44° Northeast 540 621 31,000 60 Climbing FlightAware ADS-B (CYQI)
10:44PM 44.5752 -65.6668 44° Northeast 539 620 31,000  Level FlightAware ADS-B (CYQI)
10:44PM 44.6454 -65.5696 45° Northeast 539 620 31,000 -120 Level FlightAware ADS-B (CYQI)
10:45PM 44.6974 -65.4975 45° Northeast 539 620 30,900 -120 Descending FlightAware ADS-B (CYQI)
10:45PM 44.7594 -65.4116 45° Northeast 538 619 30,900  Level FlightAware ADS-B (CYQI)
10:46PM 44.8061 -65.3463 45° Northeast 539 620 30,900 60 Level FlightAware ADS-B (CYQI)
10:46PM 44.8836 -65.2377 45° Northeast 538 619 31,000  Climbing FlightAware ADS-B (CYQI)
10:47PM 44.9550 -65.1374 45° Northeast 535 616 30,900 -120 Descending FlightAware ADS-B (CYQI)
10:48PM 45.0050 -65.0669 45° Northeast 533 613 30,900  Level FlightAware ADS-B (CYQI)
10:48PM 45.0540 -64.9980 45° Northeast 532 612 30,900  Level FlightAware
10:48PM 45.0827 -64.9572 45° Northeast 533 613 30,900  Level FlightAware ADS-B (CYQI)
10:49PM 45.1750 -64.8260 45° Northeast 532 612 30,900  Level FlightAware
10:50PM 45.2370 -64.7370 45° Northeast 534 615 30,900  Level FlightAware
10:51PM 45.2970 -64.6530 45° Northeast 534 615 30,900  Level FlightAware
10:51PM 45.3500 -64.5770 45° Northeast 534 615 30,900 60 Level FlightAware
10:52PM 45.2450 -64.7260 225° Southwest 30,900 60 Level FlightAware
10:52PM 45.3120 -64.6300 45° Northeast 535 616 31,000  Climbing FlightAware
10:53PM 45.3680 -64.5520 44° Northeast 535 616 30,900 -120 Descending FlightAware
10:53PM 45.4230 -64.4700 46° Northeast 535 616 30,900  Level FlightAware
10:54PM 45.4810 -64.3840 46° Northeast 535 616 30,900  Level FlightAware
10:55PM 45.5340 -64.3060 46° Northeast 535 616 30,900  Level FlightAware
10:55PM 45.5860 -64.2280 46° Northeast 535 616 30,900  Level FlightAware
10:56PM 45.6390 -64.1500 46° Northeast 535 616 30,900 60 Level FlightAware
10:57PM 45.6810 -64.0940 43° Northeast 540 621 31,000  Climbing FlightAware
10:57PM 45.7150 -64.0440 46° Northeast 541 623 30,900  Descending FlightAware
10:58PM 45.7400 -64.0070 46° Northeast 542 624 31,000 60 Climbing FlightAware
10:58PM 45.8010 -63.9160 46° Northeast 542 624 31,000 -120 Level FlightAware
10:59PM 45.8590 -63.8320 45° Northeast 542 624 30,900 -120 Descending FlightAware
11:00PM 45.9130 -63.7500 47° Northeast 542 624 30,900  Level FlightAware
11:00PM 45.9670 -63.6710 45° Northeast 542 624 30,900  Level FlightAware
11:01PM 46.0210 -63.5890 47° Northeast 542 624 30,900  Level FlightAware
11:02PM 46.0750 -63.5090 46° Northeast 542 624 30,900  Level FlightAware
11:02PM 46.1280 -63.4300 46° Northeast 542 624 30,900 60 Level FlightAware
11:03PM 46.5910 -62.7240 46° Northeast 553 636 31,000  Climbing FlightAware
11:04PM 46.6720 -62.6000 46° Northeast 554 638 30,900  Descending FlightAware
11:04PM 46.7320 -62.5040 48° Northeast 553 636 31,000  Climbing FlightAware
11:05PM 46.7920 -62.4130 46° Northeast 553 636 30,900 -120 Descending FlightAware
11:05PM 46.8460 -62.3310 46° Northeast 553 636 30,900  Level FlightAware
11:06PM 46.9010 -62.2480 46° Northeast 553 636 30,900  Level FlightAware
11:07PM 46.9550 -62.1660 46° Northeast 553 636 30,900  Level FlightAware
11:07PM 47.0090 -62.0830 46° Northeast 553 636 30,900  Level FlightAware
11:08PM 47.0640 -62.0010 45° Northeast 553 636 30,900  Level FlightAware
11:08PM 47.1200 -61.9160 46° Northeast 553 636 30,900  Level FlightAware
11:09PM 47.1750 -61.8310 46° Northeast 553 636 30,900 60 Level FlightAware
11:10PM 47.3030 -61.5990 51° Northeast 562 647 31,000 60 Climbing FlightAware
11:10PM 47.3630 -61.5040 47° Northeast 562 647 31,000 -120 Level FlightAware
11:11PM 47.4360 -61.3840 48° Northeast 560 644 30,900 -120 Descending FlightAware
11:12PM 47.5020 -61.2780 47° Northeast 560 644 30,900  Level FlightAware
11:12PM 47.5560 -61.1920 47° Northeast 560 644 30,900  Level FlightAware
11:13PM 47.6120 -61.1040 47° Northeast 560 644 30,900  Level FlightAware
11:13PM 47.6660 -61.0180 47° Northeast 560 644 30,900  Level FlightAware
11:14PM 47.7220 -60.9290 47° Northeast 560 644 30,900  Level FlightAware
11:15PM 47.7760 -60.8430 47° Northeast 560 644 30,900  Level FlightAware
11:15PM 47.8310 -60.7540 47° Northeast 560 644 30,900  Level FlightAware
11:16PM 47.8850 -60.6680 47° Northeast 560 644 30,900  Level FlightAware
11:16PM 47.9410 -60.5790 47° Northeast 560 644 30,900  Level FlightAware
11:17PM 47.9950 -60.4920 47° Northeast 560 644 30,900  Level FlightAware
11:18PM 48.0490 -60.4060 47° Northeast 560 644 30,900  Level FlightAware
11:18PM 48.1040 -60.3160 48° Northeast 560 644 30,900  Level FlightAware
11:19PM 48.1580 -60.2300 47° Northeast 560 644 30,900  Level FlightAware
11:19PM 48.2130 -60.1430 46° Northeast 560 644 30,900  Level FlightAware
11:20PM 48.2670 -60.0560 47° Northeast 560 644 30,900  Level FlightAware
11:21PM 48.3210 -59.9680 47° Northeast 560 644 30,900  Level FlightAware
11:21PM 48.5180 -59.5660 53° Northeast 558 642 30,900  Level FlightAware
11:22PM 48.5930 -59.4360 49° Northeast 558 642 30,900  Level FlightAware
11:23PM 48.6530 -59.3310 49° Northeast 559 643 30,900  Level FlightAware
11:24PM 48.7370 -59.1840 49° Northeast 560 644 30,900  Level FlightAware
11:24PM 48.7900 -59.0910 49° Northeast 562 647 30,900 60 Level FlightAware
11:25PM 48.8560 -58.9740 49° Northeast 564 649 31,000  Climbing FlightAware
11:25PM 48.9160 -58.8660 50° Northeast 566 651 30,900 -120 Descending FlightAware
11:26PM 48.9830 -58.7470 49° Northeast 567 652 30,900 60 Level FlightAware
11:27PM 49.0420 -58.6420 49° Northeast 569 655 31,000  Climbing FlightAware
11:27PM 49.1010 -58.5360 50° Northeast 569 655 30,900  Descending FlightAware
11:28PM 49.1610 -58.4270 50° Northeast 570 656 31,000  Climbing FlightAware
11:28PM 49.2230 -58.3150 50° Northeast 572 658 30,900 -120 Descending FlightAware
11:29PM 49.2820 -58.2080 50° Northeast 572 658 30,900 60 Level FlightAware
11:29PM 49.3400 -58.1010 50° Northeast 572 658 31,000  Climbing FlightAware
11:30PM 49.4000 -57.9920 50° Northeast 573 659 30,900 -120 Descending FlightAware
11:31PM 49.4610 -57.8800 50° Northeast 573 659 30,900  Level FlightAware
11:31PM 49.5180 -57.7700 51° Northeast 574 661 30,900 60 Level FlightAware
11:32PM 49.5710 -57.6530 55° Northeast 576 663 31,000 60 Climbing FlightAware
11:32PM 49.6180 -57.5310 59° Northeast 576 663 31,000  Level FlightAware
11:33PM 49.6650 -57.4050 60° Northeast 577 664 31,000 -120 Level FlightAware
11:34PM 49.7110 -57.2790 61° Northeast 576 663 30,900  Descending FlightAware
11:34PM 49.7550 -57.1560 61° Northeast 576 663 31,000 60 Climbing FlightAware
11:35PM 49.8080 -57.0100 61° Northeast 573 659 31,000 -120 Level FlightAware
11:35PM 49.8460 -56.9060 60° Northeast 573 659 30,900 -120 Descending FlightAware
11:36PM 49.8910 -56.7800 61° Northeast 571 657 30,900  Level FlightAware
11:36PM 49.9360 -56.6520 61° Northeast 567 652 30,900  Level FlightAware
11:37PM 49.9810 -56.5270 61° Northeast 567 652 30,900  Level FlightAware
11:38PM 50.0250 -56.4010 61° Northeast 565 650 30,900  Level FlightAware
11:38PM 50.0690 -56.2770 61° Northeast 566 651 30,900 60 Level FlightAware
11:39PM 50.1130 -56.1510 61° Northeast 566 651 31,000 60 Climbing FlightAware
11:39PM 50.1560 -56.0280 61° Northeast 562 647 31,000 -120 Level FlightAware
11:40PM 50.1990 -55.9020 62° Northeast 559 643 30,900  Descending FlightAware
11:41PM 50.2420 -55.7770 62° Northeast 559 643 31,000  Climbing FlightAware
11:41PM 50.2830 -55.6580 62° Northeast 558 642 30,900 -120 Descending FlightAware
11:42PM 50.3270 -55.5310 61° Northeast 556 640 30,900  Level FlightAware
11:42PM 50.3680 -55.4100 62° Northeast 555 639 30,900  Level FlightAware
11:43PM 50.4100 -55.2860 62° Northeast 554 638 30,900  Level FlightAware
11:43PM 50.4540 -55.1570 62° Northeast 554 638 30,900 60 Level FlightAware
11:44PM 50.4960 -55.0340 62° Northeast 556 640 31,000  Climbing FlightAware
11:45PM 50.5350 -54.9170 62° Northeast 557 641 30,900  Descending FlightAware
11:45PM 50.5790 -54.7860 62° Northeast 557 641 31,000  Climbing FlightAware
11:46PM 50.6250 -54.6490 62° Northeast 558 642 30,900  Descending FlightAware
11:47PM 50.6870 -54.4600 63° Northeast 560 644 31,000  Climbing FlightAware
11:47PM 50.7340 -54.3180 62° Northeast 558 642 30,900 -120 Descending FlightAware
11:48PM 50.7810 -54.1740 63° Northeast 554 638 30,900  Level FlightAware
11:49PM 50.8220 -54.0480 63° Northeast 553 636 30,900  Level FlightAware
11:49PM 50.8640 -53.9190 63° Northeast 552 635 30,900 60 Level FlightAware
11:50PM 50.9230 -53.7340 63° Northeast 551 634 31,000 60 Climbing FlightAware
11:51PM 50.9590 -53.6240 63° Northeast 551 634 31,000  Level FlightAware
11:51PM 50.9940 -53.5130 63° Northeast 551 634 31,000  Level FlightAware
11:52PM 51.0300 -53.4030 62° Northeast 551 634 31,000  Level FlightAware
11:53PM 51.0650 -53.2920 63° Northeast 551 634 31,000  Level FlightAware
11:53PM 51.1010 -53.1780 63° Northeast 551 634 31,000  Level FlightAware
11:54PM 51.1370 -53.0680 62° Northeast 551 634 31,000  Level FlightAware
11:54PM 51.1730 -52.9540 63° Northeast 551 634 31,000  Level FlightAware
11:55PM 51.2100 -52.8400 63° Northeast 551 634 31,000  Level FlightAware
11:56PM 51.2460 -52.7260 63° Northeast 551 634 31,000  Level FlightAware
11:56PM 51.2810 -52.6150 63° Northeast 551 634 31,000  Level FlightAware
11:57PM 51.3150 -52.5100 63° Northeast 551 634 31,000  Level FlightAware
11:57PM 51.3500 -52.3980 63° Northeast 551 634 31,000  Level FlightAware
11:58PM 51.3860 -52.2870 63° Northeast 551 634 31,000  Level FlightAware
11:59PM 51.4220 -52.1730 63° Northeast 551 634 31,000  Level FlightAware
11:59PM 51.4570 -52.0610 63° Northeast 551 634 31,000 -60 Level FlightAware
12:00AM 51.5667 -51.4500 63° Northeast 550 633 30,900 -60 Descending Gander Center
12:01AM 51.6333 -51.2333 64° Northeast 550 633 30,900  Level Gander Center
12:02AM 51.6833 -51.0333 68° East 550 633 30,900  Level Gander Center
12:03AM 51.7500 -50.7833 67° East 550 633 30,900  Level Gander Center
12:04AM 51.8000 -50.5667 69° East 540 621 30,900  Level Gander Center
12:05AM 51.8833 -50.3667 56° Northeast 540 621 30,900  Level Gander Center
12:08AM 52.0037 -49.9741 77° East  Level FlightAware Approximate
12:15AM 52.2168 -48.4030 77° East  Level FlightAware Approximate
12:16AM 52.2456 -48.1773 78° East  Level FlightAware Approximate
12:17AM 52.2739 -47.9514 78° East  Level FlightAware Approximate
12:18AM 52.3018 -47.7251 79° East  Level FlightAware Approximate
12:19AM 52.3292 -47.4986 79° East  Level FlightAware Approximate
12:20AM 52.3562 -47.2718 79° East  Level FlightAware Approximate
12:21AM 52.3828 -47.0448 79° East  Level FlightAware Approximate
12:22AM 52.4089 -46.8174 79° East  Level FlightAware Approximate
12:23AM 52.4346 -46.5898 79° East  Level FlightAware Approximate
12:24AM 52.4599 -46.3619 80° East  Level FlightAware Approximate
12:25AM 52.4852 -46.1340 80° East  Level FlightAware Approximate
12:26AM 52.5103 -45.9058 80° East  Level FlightAware Approximate
12:27AM 52.5350 -45.6773 80° East  Level FlightAware Approximate
12:28AM 52.5592 -45.4486 80° East  Level FlightAware Approximate
12:29AM 52.5829 -45.2197 80° East  Level FlightAware Approximate
12:30AM 52.6063 -44.9905 80° East  Level FlightAware Approximate
12:31AM 52.6291 -44.7611 81° East  Level FlightAware Approximate
12:32AM 52.6516 -44.5314 81° East  Level FlightAware Approximate
12:33AM 52.6736 -44.3015 81° East  Level FlightAware Approximate
12:34AM 52.6951 -44.0713 81° East  Level FlightAware Approximate
12:35AM 52.7162 -43.8410 81° East  Level FlightAware Approximate
12:36AM 52.7369 -43.6104 81° East  Level FlightAware Approximate
12:37AM 52.7571 -43.3796 82° East  Level FlightAware Approximate
12:38AM 52.7768 -43.1486 82° East  Level FlightAware Approximate
12:39AM 52.7961 -42.9174 82° East  Level FlightAware Approximate
12:40AM 52.8150 -42.6859 82° East  Level FlightAware Approximate
12:41AM 52.8334 -42.4543 82° East  Level FlightAware Approximate
12:42AM 52.8514 -42.2225 83° East  Level FlightAware Approximate
12:43AM 52.8689 -41.9905 83° East  Level FlightAware Approximate
12:44AM 52.8859 -41.7583 83° East  Level FlightAware Approximate
12:45AM 52.9025 -41.5260 83° East  Level FlightAware Approximate
12:46AM 52.9187 -41.2934 83° East  Level FlightAware Approximate
12:47AM 52.9344 -41.0607 84° East  Level FlightAware Approximate
12:48AM 52.9496 -40.8278 84° East  Level FlightAware Approximate
12:49AM 52.9644 -40.5948 84° East  Level FlightAware Approximate
12:50AM 52.9787 -40.3616 84° East  Level FlightAware Approximate
12:51AM 52.9926 -40.1282 84° East  Level FlightAware Approximate
12:52AM 52.9935 -39.8948 96° East  Level FlightAware Approximate
12:53AM 52.9789 -39.6616 96° East  Level FlightAware Approximate
12:54AM 52.9638 -39.4285 96° East  Level FlightAware Approximate
12:55AM 52.9482 -39.1956 96° East  Level FlightAware Approximate
12:56AM 52.9322 -38.9629 96° East  Level FlightAware Approximate
12:57AM 52.9157 -38.7303 97° East  Level FlightAware Approximate
12:58AM 52.8988 -38.4980 97° East  Level FlightAware Approximate
12:59AM 52.8814 -38.2658 97° East  Level FlightAware Approximate
12:59AM 53.0000 -40.0000 95° East 472 543 31,000  Level ETMS Enhanced Traffic Management System
01:00AM 52.8636 -38.0338 97° East  Level FlightAware Approximate
01:01AM 52.8452 -37.8011 97° East  Level FlightAware Approximate
01:02AM 52.8264 -37.5686 98° East  Level FlightAware Approximate
01:03AM 52.8079 -37.3361 97° East  Level FlightAware Approximate
01:04AM 52.7896 -37.1037 97° East  Level FlightAware Approximate
01:05AM 52.8254 -37.4062 97° East 472 543 31,000  Level FlightAware Transoceanic
01:06AM 52.8083 -37.1911 98° East 472 543 31,000  Level FlightAware Transoceanic
01:07AM 52.7908 -36.9761 98° East 472 543 31,000  Level FlightAware Transoceanic
01:08AM 52.7729 -36.7613 98° East 472 543 31,000  Level FlightAware Transoceanic
01:09AM 52.7547 -36.5466 98° East 472 543 31,000  Level FlightAware Transoceanic
01:10AM 52.7360 -36.3322 98° East 472 543 31,000  Level FlightAware Transoceanic
01:11AM 52.7170 -36.1179 98° East 472 543 31,000  Level FlightAware Transoceanic
01:12AM 52.6976 -35.9039 99° East 472 543 31,000  Level FlightAware Transoceanic
01:13AM 52.6778 -35.6900 99° East 472 543 31,000  Level FlightAware Transoceanic
01:14AM 52.6576 -35.4763 99° East 472 543 31,000  Level FlightAware Transoceanic
01:15AM 52.6370 -35.2628 99° East 472 543 31,000  Level FlightAware Transoceanic
01:16AM 52.6161 -35.0495 99° East 472 543 31,000  Level FlightAware Transoceanic
01:17AM 52.5947 -34.8365 99° East 472 543 31,000  Level FlightAware Transoceanic
01:18AM 52.5730 -34.6236 100° East 472 543 31,000  Level FlightAware Transoceanic
01:19AM 52.5509 -34.4110 100° East 472 543 31,000  Level FlightAware Transoceanic
01:20AM 52.5284 -34.1985 100° East 472 543 31,000  Level FlightAware Transoceanic
01:21AM 52.5056 -33.9863 100° East 472 543 31,000  Level FlightAware Transoceanic
01:22AM 52.4823 -33.7743 100° East 472 543 31,000  Level FlightAware Transoceanic
01:23AM 52.4587 -33.5625 100° East 472 543 31,000  Level FlightAware Transoceanic
01:24AM 52.4347 -33.3510 101° East 472 543 31,000  Level FlightAware Transoceanic
01:25AM 52.4103 -33.1397 101° East 472 543 31,000  Level FlightAware Transoceanic
01:26AM 52.3856 -32.9286 101° East 472 543 31,000  Level FlightAware Transoceanic
01:27AM 52.3605 -32.7178 101° East 472 543 31,000  Level FlightAware Transoceanic
01:28AM 52.3349 -32.5072 101° East 472 543 31,000  Level FlightAware Transoceanic
01:29AM 52.3091 -32.2968 101° East 472 543 31,000  Level FlightAware Transoceanic
01:30AM 52.2828 -32.0868 102° East 472 543 31,000  Level FlightAware Transoceanic
01:31AM 52.2562 -31.8769 102° East 472 543 31,000  Level FlightAware Transoceanic
01:32AM 52.2292 -31.6673 102° East 472 543 31,000  Level FlightAware Transoceanic
01:33AM 52.2019 -31.4580 102° East 472 543 31,000  Level FlightAware Transoceanic
01:34AM 52.1741 -31.2489 102° East 472 543 31,000  Level FlightAware Transoceanic
01:35AM 52.1460 -31.0401 102° East 472 543 31,000  Level FlightAware Transoceanic
01:36AM 52.1175 -30.8315 103° East 472 543 31,000  Level FlightAware Transoceanic
01:37AM 52.0887 -30.6232 103° East 472 543 31,000  Level FlightAware Transoceanic
01:38AM 52.0595 -30.4152 103° East 472 543 31,000  Level FlightAware Transoceanic
01:39AM 52.0299 -30.2075 103° East 472 543 31,000  Level FlightAware Transoceanic
01:40AM 51.9976 -29.9833 103° East  Level FlightAware Approximate
01:41AM 51.9950 -29.9667 104° East  Level FlightAware Approximate
01:41AM 52.0000 -30.0000 104° East 494 568 31,000  Level ETMS Enhanced Traffic Management System
01:42AM 51.9613 -29.7432 104° East  Level FlightAware Approximate
01:43AM 51.9272 -29.5201 104° East  Level FlightAware Approximate
01:44AM 51.8926 -29.2973 104° East  Level FlightAware Approximate
01:45AM 51.8577 -29.0749 104° East  Level FlightAware Approximate
01:46AM 51.8223 -28.8528 104° East  Level FlightAware Approximate
01:47AM 51.7270 -28.2752 105° East 494 568 31,000  Level FlightAware Transoceanic
01:48AM 51.6911 -28.0611 105° East 494 568 31,000  Level FlightAware Transoceanic
01:49AM 51.6548 -27.8474 105° East 494 568 31,000  Level FlightAware Transoceanic
01:50AM 51.6181 -27.6339 106° East 494 568 31,000  Level FlightAware Transoceanic
01:51AM 51.5811 -27.4209 106° East 494 568 31,000  Level FlightAware Transoceanic
01:52AM 51.5437 -27.2082 106° East 494 568 31,000  Level FlightAware Transoceanic
01:53AM 51.5058 -26.9958 106° East 494 568 31,000  Level FlightAware Transoceanic
01:54AM 51.4676 -26.7838 106° East 494 568 31,000  Level FlightAware Transoceanic
01:55AM 51.4290 -26.5721 106° East 494 568 31,000  Level FlightAware Transoceanic
01:56AM 51.3901 -26.3608 107° East 494 568 31,000  Level FlightAware Transoceanic
01:57AM 51.3507 -26.1499 107° East 494 568 31,000  Level FlightAware Transoceanic
01:58AM 51.3110 -25.9393 107° East 494 568 31,000  Level FlightAware Transoceanic
01:59AM 51.2709 -25.7291 107° East 494 568 31,000  Level FlightAware Transoceanic
02:00AM 51.2304 -25.5192 107° East 494 568 31,000  Level FlightAware Transoceanic
02:01AM 51.1896 -25.3098 107° East 494 568 31,000  Level FlightAware Transoceanic
02:02AM 51.1483 -25.1007 108° East 494 568 31,000  Level FlightAware Transoceanic
02:03AM 51.1067 -24.8920 108° East 494 568 31,000  Level FlightAware Transoceanic
02:04AM 51.0648 -24.6836 108° East 494 568 31,000  Level FlightAware Transoceanic
02:05AM 51.0224 -24.4756 108° East 494 568 31,000  Level FlightAware Transoceanic
02:06AM 50.9797 -24.2680 108° East 494 568 31,000  Level FlightAware Transoceanic
02:07AM 50.9366 -24.0609 108° East 494 568 31,000  Level FlightAware Transoceanic
02:08AM 50.8932 -23.8540 109° East 494 568 31,000  Level FlightAware Transoceanic
02:09AM 50.8494 -23.6476 109° East 494 568 31,000  Level FlightAware Transoceanic
02:10AM 50.8052 -23.4416 109° East 494 568 31,000  Level FlightAware Transoceanic
02:11AM 50.7607 -23.2359 109° East 494 568 31,000  Level FlightAware Transoceanic
02:12AM 50.7158 -23.0306 109° East 494 568 31,000  Level FlightAware Transoceanic
02:13AM 50.6706 -22.8258 109° East 494 568 31,000  Level FlightAware Transoceanic
02:14AM 50.6250 -22.6213 109° East 494 568 31,000  Level FlightAware Transoceanic
02:15AM 50.5790 -22.4172 110° East 494 568 31,000  Level FlightAware Transoceanic
02:16AM 50.5327 -22.2136 110° East 494 568 31,000  Level FlightAware Transoceanic
02:17AM 50.4860 -22.0103 110° East 494 568 31,000  Level FlightAware Transoceanic
02:18AM 50.4390 -21.8074 110° East 494 568 31,000  Level FlightAware Transoceanic
02:19AM 50.3916 -21.6050 110° East 494 568 31,000  Level FlightAware Transoceanic
02:20AM 50.3438 -21.4029 110° East 494 568 31,000  Level FlightAware Transoceanic
02:21AM 50.2958 -21.2013 111° Southeast 494 568 31,000  Level FlightAware Transoceanic
02:22AM 50.2473 -21.0000 111° Southeast 494 568 31,000  Level FlightAware Transoceanic
02:23AM 50.1986 -20.7992 111° Southeast 494 568 31,000  Level FlightAware Transoceanic
02:24AM 50.1494 -20.5988 111° Southeast 494 568 31,000  Level FlightAware Transoceanic
02:25AM 50.1000 -20.3988 111° Southeast 494 568 31,000  Level FlightAware Transoceanic
02:26AM 50.0502 -20.1992 111° Southeast 494 568 31,000 60 Level FlightAware Transoceanic
02:27AM 49.9983 -19.9931 111° Southeast  Level FlightAware Approximate
02:28AM 49.9995 -19.9853 93° East  Level FlightAware Approximate
02:29AM 49.9922 -19.7644 93° East  Level FlightAware Approximate
02:30AM 49.9845 -19.5436 93° East  Level FlightAware Approximate
02:31AM 49.9764 -19.3228 93° East  Level FlightAware Approximate
02:32AM 49.9678 -19.1022 93° East  Level FlightAware Approximate
02:33AM 49.9588 -18.8816 94° East  Level FlightAware Approximate
02:34AM 49.9494 -18.6611 94° East  Level FlightAware Approximate
02:35AM 49.9396 -18.4407 94° East  Level FlightAware Approximate
02:36AM 49.9294 -18.2204 94° East  Level FlightAware Approximate
02:37AM 49.9187 -18.0002 94° East  Level FlightAware Approximate
02:38AM 49.9076 -17.7800 94° East  Level FlightAware Approximate
02:39AM 49.8962 -17.5600 95° East  Level FlightAware Approximate
02:40AM 49.8843 -17.3401 95° East  Level FlightAware Approximate
02:41AM 49.8719 -17.1203 95° East  Level FlightAware Approximate
02:42AM 49.8592 -16.9006 95° East  Level FlightAware Approximate
02:43AM 49.8461 -16.6810 95° East  Level FlightAware Approximate
02:44AM 49.8325 -16.4616 95° East  Level FlightAware Approximate
02:45AM 49.8185 -16.2423 96° East  Level FlightAware Approximate
02:46AM 49.8041 -16.0231 96° East  Level FlightAware Approximate
02:47AM 49.7893 -15.8040 96° East  Level FlightAware Approximate
02:48AM 49.7741 -15.5851 96° East  Level FlightAware Approximate
02:49AM 49.7585 -15.3663 96° East  Level FlightAware Approximate
02:50AM 49.7425 -15.1476 96° East  Level FlightAware Approximate
02:51AM 49.7260 -14.9291 97° East  Level FlightAware Approximate
02:52AM 49.7091 -14.7108 97° East  Level FlightAware Approximate
02:53AM 49.6919 -14.4926 97° East  Level FlightAware Approximate
02:54AM 49.6742 -14.2745 97° East  Level FlightAware Approximate
02:55AM 49.6561 -14.0567 97° East  Level FlightAware Approximate
02:56AM 49.6376 -13.8389 97° East  Level FlightAware Approximate
02:57AM 49.6187 -13.6210 98° East  Level FlightAware Approximate
02:58AM 49.5993 -13.4033 98° East  Level FlightAware Approximate
02:59AM 49.5796 -13.1857 98° East  Level FlightAware Approximate
03:00AM 49.5594 -12.9683 98° East  Level FlightAware Approximate
03:01AM 49.5388 -12.7511 98° East  Level FlightAware Approximate
03:02AM 49.5179 -12.5341 98° East  Level FlightAware Approximate
03:03AM 49.4965 -12.3173 99° East  Level FlightAware Approximate
03:04AM 49.4747 -12.1006 99° East  Level FlightAware Approximate
03:05AM 49.4525 -11.8842 99° East  Level FlightAware Approximate
03:06AM 49.4299 -11.6679 99° East  Level FlightAware Approximate
03:07AM 49.4069 -11.4519 99° East  Level FlightAware Approximate
03:08AM 49.3835 -11.2360 99° East  Level FlightAware Approximate
03:09AM 49.3597 -11.0204 100° East  Level FlightAware Approximate
03:10AM 49.3363 -10.8048 99° East  Level FlightAware Approximate
03:10AM 49.4060 -9.8870 99° East 533 613 34,900  Level FlightAware
03:10AM 49.3880 -9.7750 104° East 531 611 34,900  Level FlightAware
03:11AM 49.3130 -10.5892 99° East  Level FlightAware Approximate
03:11AM 49.3710 -9.6590 103° East 531 611 34,900  Level FlightAware
03:12AM 49.3500 -9.5220 103° East 531 611 34,900  Level FlightAware
03:13AM 49.3140 -9.3030 104° East 531 611 34,900  Level FlightAware
03:13AM 49.2970 -9.1910 103° East 531 611 34,900  Level FlightAware
03:14AM 49.2700 -9.0450 106° East 531 611 34,900  Level FlightAware
03:14AM 49.2520 -8.9380 104° East 531 611 34,900  Level FlightAware
03:15AM 49.2220 -8.7580 104° East 532 612 34,900  Level FlightAware
03:16AM 49.1793 -8.6546 104° East 498 573 34,900 120 Level FlightAware UK
03:16AM 49.2000 -8.6260 104° East 531 611 35,000  Climbing FlightAware
03:16AM 49.1597 -8.5440 104° East 498 573 34,900 -180 Descending FlightAware UK
03:16AM 49.1780 -8.4960 104° East 532 612 34,900  Level FlightAware
03:17AM 49.1580 -8.3790 105° East 532 612 34,900  Level FlightAware
03:17AM 49.1350 -8.2490 105° East 531 611 34,900  Level FlightAware
03:18AM 49.1120 -8.1170 105° East 532 612 34,900 60 Level FlightAware
03:19AM 49.0870 -8.0000 108° East 533 613 35,000  Climbing FlightAware
03:19AM 49.0570 -7.8710 108° East 533 613 34,900 -180 Descending FlightAware
03:19AM 49.0374 -7.8945 108° East 498 573 34,900  Level FlightAware UK
03:20AM 49.0117 -7.7892 108° East 498 573 34,900 120 Level FlightAware UK
03:20AM 49.0280 -7.7520 108° East 531 611 35,000  Climbing FlightAware
03:20AM 48.9970 -7.6280 111° Southeast 530 610 34,900 -120 Descending FlightAware
03:21AM 48.9670 -7.5140 112° Southeast 530 610 34,900  Level FlightAware
03:21AM 48.9350 -7.3900 111° Southeast 528 608 34,900  Level FlightAware
03:22AM 48.9030 -7.2660 111° Southeast 527 606 34,900 60 Level FlightAware
03:23AM 48.8720 -7.1480 111° Southeast 527 606 35,000  Climbing FlightAware
03:23AM 48.8513 -7.1637 111° Southeast 498 573 34,900 -240 Descending FlightAware UK
03:23AM 48.8237 -7.0585 111° Southeast 496 571 34,900  Level FlightAware UK
03:23AM 48.8410 -7.0300 111° Southeast 527 606 34,900  Level FlightAware
03:24AM 48.8070 -6.8990 111° Southeast 525 604 34,900  Level FlightAware
03:24AM 48.7750 -6.7780 112° Southeast 523 602 34,900  Level FlightAware
03:25AM 48.7430 -6.6560 112° Southeast 524 603 34,900  Level FlightAware
03:26AM 48.7160 -6.5530 112° Southeast 523 602 34,900 60 Level FlightAware
03:26AM 48.6830 -6.4290 112° Southeast 522 601 35,000  Climbing FlightAware
03:27AM 48.6636 -6.3554 112° Southeast 522 601 34,900 -120 Descending FlightAware ADS-B
03:27AM 48.6029 -6.2182 112° Southeast 496 571 34,900  Level FlightAware UK
03:27AM 48.6190 -6.1910 112° Southeast 520 598 34,900 120 Level FlightAware
03:28AM 48.5860 -6.0690 112° Southeast 520 598 35,000  Climbing FlightAware
03:29AM 48.5530 -5.9470 112° Southeast 519 597 34,900 -120 Descending FlightAware
03:29AM 48.5250 -5.8430 112° Southeast 519 597 34,900  Level FlightAware
03:30AM 48.4920 -5.7230 112° Southeast 519 597 34,900  Level FlightAware
03:30AM 48.4570 -5.5970 113° Southeast 519 597 34,900 60 Level FlightAware
03:31AM 48.4240 -5.4750 112° Southeast 520 598 35,000  Climbing FlightAware
03:31AM 48.3910 -5.3560 113° Southeast 519 597 34,900  Descending FlightAware
03:32AM 48.3610 -5.2490 113° Southeast 519 597 35,000  Climbing FlightAware
03:33AM 48.3280 -5.1310 113° Southeast 518 596 34,900 -120 Descending FlightAware
03:33AM 48.2950 -5.0140 113° Southeast 518 596 34,900  Level FlightAware
03:34AM 48.2718 -4.9334 113° Southeast 518 596 34,900  Level FlightAware ADS-B
03:34AM 48.2320 -4.7930 113° Southeast 519 597 34,900  Level FlightAware
03:35AM 48.1942 -4.6611 113° Southeast 519 597 34,900 60 Level FlightAware ADS-B
03:35AM 48.1656 -4.5613 113° Southeast 519 597 35,000  Climbing FlightAware ADS-B
03:36AM 48.1320 -4.4430 113° Southeast 519 597 34,900 -180 Descending FlightAware
03:36AM 48.1287 -4.4333 117° Southeast 519 597 34,900  Level FlightAware ADS-B (EGJJ / JER)
03:37AM 48.1010 -4.3377 113° Southeast 519 597 34,900  Level FlightAware ADS-B
03:37AM 48.0721 -4.2385 113° Southeast 518 596 34,900  Level FlightAware ADS-B
03:38AM 48.0423 -4.1358 113° Southeast 518 596 34,900 60 Level FlightAware ADS-B
03:38AM 48.0121 -4.0323 114° Southeast 517 595 35,000  Climbing FlightAware ADS-B
03:39AM 47.9836 -3.9356 114° Southeast 518 596 34,900 -120 Descending FlightAware ADS-B
03:39AM 47.9457 -3.8073 114° Southeast 518 596 34,900  Level FlightAware ADS-B
03:40AM 47.9011 -3.6566 114° Southeast 518 596 34,900  Level FlightAware ADS-B
03:41AM 47.8726 -3.5610 114° Southeast 518 596 34,900  Level FlightAware ADS-B
03:41AM 48.1287 -4.4333 294° West 519 597 34,900 180 Level FlightAware ADS-B (EGJJ / JER)
03:41AM 47.8382 -3.4687 114° Southeast 522 601 35,000  Climbing FlightAware ADS-B
03:42AM 47.7845 -3.3536 125° Southeast 522 601 34,900 -120 Descending FlightAware ADS-B
03:42AM 47.7441 -3.2652 124° Southeast 522 601 34,900  Level FlightAware ADS-B
03:43AM 47.7050 -3.1777 124° Southeast 521 600 34,900 60 Level FlightAware ADS-B
03:43AM 47.6587 -3.0796 125° Southeast 519 597 35,000  Climbing FlightAware ADS-B (LFBU / ANG)
03:44AM 47.6173 -2.9939 126° Southeast 519 597 34,900  Descending FlightAware ADS-B
03:44AM 47.5717 -2.8995 126° Southeast 519 597 35,000  Climbing FlightAware ADS-B (LFBU / ANG)
03:45AM 47.5217 -2.7956 125° Southeast 519 597 34,900 -120 Descending FlightAware ADS-B
03:45AM 47.4770 -2.7030 125° Southeast 518 596 34,900 120 Level FlightAware
03:46AM 47.4755 -2.6995 122° Southeast 519 597 35,000  Climbing FlightAware ADS-B
03:46AM 47.4277 -2.6001 125° Southeast 519 597 34,900 -120 Descending FlightAware ADS-B
03:47AM 47.3790 -2.4993 126° Southeast 518 596 34,900  Level FlightAware ADS-B
03:47AM 47.3351 -2.4088 126° Southeast 518 596 34,900  Level FlightAware ADS-B
03:48AM 47.2932 -2.3229 126° Southeast 517 595 34,900  Level FlightAware ADS-B
03:48AM 47.2364 -2.2069 126° Southeast 515 593 34,900  Level FlightAware ADS-B
03:49AM 47.1809 -2.0941 126° Southeast 515 593 34,900  Level FlightAware ADS-B
03:50AM 47.1349 -2.0009 126° Southeast 514 592 34,900  Level FlightAware ADS-B (LFBU / ANG)
03:50AM 47.0860 -1.9023 126° Southeast 513 590 34,900  Level FlightAware ADS-B
03:51AM 47.0429 -1.8157 126° Southeast 512 589 34,900  Level FlightAware ADS-B
03:51AM 46.9910 -1.7110 126° Southeast 511 588 34,900  Level FlightAware
03:51AM 46.9776 -1.6851 127° Southeast 512 589 34,900  Level FlightAware ADS-B
03:52AM 46.8880 -1.5060 126° Southeast 510 587 34,900  Level FlightAware
03:53AM 46.8531 -1.4373 127° Southeast 511 588 34,900  Level FlightAware ADS-B (LFBU / ANG)
03:54AM 46.7931 -1.3183 126° Southeast 510 587 34,900  Level FlightAware ADS-B (LFBU / ANG)
03:54AM 46.7430 -1.2200 127° Southeast 509 586 34,900  Level FlightAware
03:54AM 46.7368 -1.2076 126° Southeast 509 586 34,900 120 Level FlightAware ADS-B
03:55AM 46.6920 -1.1210 127° Southeast 507 583 35,000  Climbing FlightAware
03:55AM 46.6795 -1.0951 125° Southeast 508 585 34,900 -120 Descending FlightAware ADS-B (LFBU / ANG)
03:56AM 46.6246 -0.9882 127° Southeast 507 583 34,900  Level FlightAware ADS-B (LFBU / ANG)
03:56AM 46.5930 -0.9265 127° Southeast 507 583 34,900  Level FlightAware ADS-B
03:57AM 46.5390 -0.8140 125° Southeast 502 578 34,900  Level FlightAware
03:57AM 46.5346 -0.8030 120° Southeast 502 578 34,900 60 Level FlightAware ADS-B (LFBU / ANG)
03:57AM 46.4848 -0.6670 118° Southeast 502 578 35,000  Climbing FlightAware ADS-B (LFBU / ANG)
03:58AM 46.4444 -0.5593 119° Southeast 502 578 34,900 -120 Descending FlightAware ADS-B (LFBU / ANG)
03:59AM 46.3948 -0.4330 120° Southeast 503 579 34,900  Level FlightAware ADS-B (LFBU / ANG)
04:00AM 46.3463 -0.3123 120° Southeast 501 577 34,900  Level FlightAware ADS-B (LFBU / ANG)
04:00AM 46.3017 -0.2018 120° Southeast 501 577 34,900  Level FlightAware ADS-B (LFBU / ANG)
04:01AM 46.4173 -0.4898 300° West 503 579 34,900  Level FlightAware ADS-B
04:01AM 46.2322 -0.0301 120° Southeast 500 575 34,900  Level FlightAware ADS-B (LFBU / ANG)
04:02AM 46.4173 -0.4898 300° West 491 565 34,900  Level FlightAware ADS-B
04:02AM 46.1974 0.0704 119° Southeast 490 564 34,900 60 Level FlightAware ADS-B
04:02AM 46.1700 0.2090 106° East 483 556 35,000  Climbing FlightAware
04:03AM 46.1663 0.2318 103° East 483 556 34,900  Descending FlightAware ADS-B (LFBU / ANG)
04:03AM 46.1468 0.3526 103° East 481 554 35,000  Climbing FlightAware ADS-B (LFBU / ANG)
04:04AM 46.1250 0.4872 103° East 481 554 34,900 -120 Descending FlightAware ADS-B (LFBU / ANG)
04:05AM 46.0995 0.6404 103° East 480 552 34,900  Level FlightAware ADS-B (LFBU / ANG)
04:05AM 46.0785 0.7644 104° East 480 552 34,900  Level FlightAware ADS-B (LFBU / ANG)
04:06AM 46.0573 0.8888 104° East 480 552 34,900  Level FlightAware ADS-B (LFBU / ANG)
04:07AM 46.0365 1.0098 104° East 480 552 34,900  Level FlightAware ADS-B (LFBU / ANG)
04:07AM 46.0146 1.1374 104° East 481 554 34,900  Level FlightAware ADS-B (LFBU / ANG)
04:08AM 45.9914 1.2721 104° East 482 555 34,900  Level FlightAware ADS-B (LFBU / ANG)
04:09AM 45.9787 1.3991 98° East 478 550 34,900  Level FlightAware ADS-B (LFBU / ANG)
04:09AM 45.9711 1.5100 96° East 478 550 34,900 60 Level FlightAware ADS-B (LFBU / ANG)
04:10AM 45.9630 1.6570 94° East 479 551 35,000  Climbing FlightAware
04:11AM 45.9540 1.8010 95° East 482 555 34,900  Descending FlightAware
04:12AM 45.9450 1.9400 95° East 487 560 35,000  Climbing FlightAware
04:12AM 45.9370 2.0570 96° East 489 563 34,900  Descending FlightAware
04:13AM 45.9290 2.1730 96° East 493 567 35,000  Climbing FlightAware
04:13AM 45.9210 2.2830 96° East 495 570 34,900 -120 Descending FlightAware
04:14AM 45.9130 2.3960 96° East 497 572 34,900 60 Level FlightAware
04:15AM 45.9050 2.5150 95° East 500 575 35,000  Climbing FlightAware
04:15AM 45.8980 2.6140 96° East 502 578 34,900 -120 Descending FlightAware
04:16AM 45.8880 2.7520 96° East 504 580 34,900  Level FlightAware
04:16AM 45.8800 2.8590 96° East 505 581 34,900  Level FlightAware
04:17AM 45.8720 2.9720 96° East 505 581 34,900  Level FlightAware
04:17AM 45.8653 3.0780 95° East 506 582 34,900  Level FlightAware ADS-B (LFBU / ANG)
04:18AM 45.8579 3.2160 94° East 507 583 34,900  Level FlightAware ADS-B (LFBU / ANG)
04:19AM 45.8509 3.3473 94° East 508 585 34,900  Level FlightAware ADS-B (LFBU / ANG)
04:19AM 45.8452 3.4472 95° East 508 585 34,900  Level FlightAware ADS-B (LFBU / ANG)
04:20AM 45.8330 3.6790 94° East 506 582 34,900 60 Level FlightAware
04:21AM 45.8270 3.8010 94° East 504 580 35,000  Climbing FlightAware
04:22AM 45.8200 3.9150 95° East 503 579 34,900 -120 Descending FlightAware
04:22AM 45.8140 4.0390 94° East 503 579 34,900  Level FlightAware
04:23AM 45.8080 4.1420 95° East 502 578 34,900  Level FlightAware
04:23AM 45.8010 4.2640 95° East 501 577 34,900 60 Level FlightAware
04:24AM 45.7920 4.3830 96° East 503 579 35,000 60 Climbing FlightAware
04:25AM 45.7710 4.5010 104° East 502 578 35,000 -120 Level FlightAware
04:25AM 45.7520 4.6040 105° East 502 578 34,900  Descending FlightAware
04:26AM 45.7300 4.7150 106° East 502 578 35,000 60 Climbing FlightAware
04:26AM 45.7070 4.8370 105° East 503 579 35,000 -120 Level FlightAware
04:27AM 45.6850 4.9540 105° East 503 579 34,900  Descending FlightAware
04:27AM 45.6610 5.0550 109° East 505 581 35,000  Climbing FlightAware
04:28AM 45.6320 5.1750 109° East 506 582 34,900 -120 Descending FlightAware
04:29AM 45.6080 5.2680 110° East 506 582 34,900  Level FlightAware
04:29AM 45.5790 5.3880 109° East 505 581 34,900  Level FlightAware
04:30AM 45.5520 5.5020 109° East 505 581 34,900  Level FlightAware
04:30AM 45.5270 5.6040 109° East 504 580 34,900  Level FlightAware
04:31AM 45.4990 5.7180 109° East 505 581 34,900  Level FlightAware
04:32AM 45.4720 5.8290 109° East 505 581 34,900  Level FlightAware
04:32AM 45.4430 5.9440 110° East 505 581 34,900  Level FlightAware
04:33AM 45.4170 6.0500 109° East 506 582 34,900  Level FlightAware
04:33AM 45.3900 6.1560 110° East 506 582 34,900  Level FlightAware
04:34AM 45.3630 6.2630 110° East 504 580 34,900  Level FlightAware
04:34AM 45.3330 6.3820 110° East 503 579 34,900  Level FlightAware
04:35AM 45.3060 6.4910 109° East 502 578 34,900  Level FlightAware
04:36AM 45.2800 6.5900 110° East 502 578 34,900  Level FlightAware
04:36AM 45.2530 6.6980 110° East 503 579 34,900  Level FlightAware
04:37AM 45.2230 6.8150 110° East 503 579 34,900 60 Level FlightAware
04:37AM 45.1970 6.9150 110° East 504 580 35,000  Climbing FlightAware
04:38AM 45.1690 7.0200 111° Southeast 505 581 34,900 -120 Descending FlightAware
04:39AM 45.1390 7.1340 110° East 505 581 34,900  Level FlightAware
04:39AM 45.1090 7.2500 110° East 503 579 34,900  Level FlightAware
04:40AM 45.0810 7.3430 113° Southeast 504 580 34,900 60 Level FlightAware
04:40AM 45.0480 7.4460 114° Southeast 505 581 35,000 60 Climbing FlightAware
04:41AM 45.0080 7.5600 116° Southeast 505 581 35,000 -120 Level FlightAware
04:41AM 44.9750 7.6530 117° Southeast 506 582 34,900 -120 Descending FlightAware
04:42AM 44.9350 7.7620 117° Southeast 506 582 34,900  Level FlightAware
04:43AM 44.8950 7.8720 117° Southeast 506 582 34,900  Level FlightAware
04:43AM 44.8600 7.9650 118° Southeast 505 581 34,900  Level FlightAware
04:44AM 44.8230 8.0660 117° Southeast 502 578 34,900  Level FlightAware
04:44AM 44.7850 8.1700 117° Southeast 500 575 34,900  Level FlightAware
04:45AM 44.7500 8.2670 117° Southeast 498 573 34,900  Level FlightAware
04:46AM 44.7100 8.3750 117° Southeast 498 573 34,900  Level FlightAware
04:46AM 44.6710 8.4790 118° Southeast 499 574 34,900  Level FlightAware
04:47AM 44.6330 8.5820 117° Southeast 500 575 34,900  Level FlightAware
04:47AM 44.5980 8.6760 118° Southeast 501 577 34,900  Level FlightAware
04:48AM 44.5590 8.7800 118° Southeast 502 578 34,900  Level FlightAware
04:48AM 44.5210 8.8810 118° Southeast 502 578 34,900  Level FlightAware
04:49AM 44.4790 8.9930 118° Southeast 504 580 34,900  Level FlightAware
04:50AM 44.4400 9.1040 116° Southeast 504 580 34,900  Level FlightAware
04:50AM 44.4150 9.2040 109° East 504 580 34,900  Level FlightAware
04:51AM 44.3920 9.3170 106° East 504 580 34,900  Level FlightAware
04:52AM 44.3680 9.4370 106° East 504 580 34,900  Level FlightAware
04:52AM 44.3480 9.5390 105° East 503 579 34,900 60 Level FlightAware
04:53AM 44.3250 9.6500 106° East 501 577 35,000  Climbing FlightAware
04:53AM 44.3050 9.7570 105° East 501 577 34,900 -120 Descending FlightAware
04:54AM 44.2840 9.8700 105° East 500 575 34,900 60 Level FlightAware
04:54AM 44.2640 9.9710 105° East 500 575 35,000  Climbing FlightAware
04:55AM 44.2430 10.0830 105° East 503 579 34,900  Descending FlightAware
04:56AM 44.2200 10.1990 105° East 504 580 35,000  Climbing FlightAware
04:56AM 44.1970 10.3130 106° East 505 581 34,900 -120 Descending FlightAware
04:57AM 44.1770 10.4130 106° East 506 582 34,900  Level FlightAware
04:57AM 44.1560 10.5270 104° East 505 581 34,900  Level FlightAware
04:58AM 44.1370 10.6400 103° East 504 580 34,900  Level FlightAware
04:59AM 44.1170 10.7550 104° East 503 579 34,900  Level FlightAware
04:59AM 44.0990 10.8550 104° East 502 578 34,900  Level FlightAware
05:00AM 44.0800 10.9620 104° East 502 578 34,900  Level FlightAware
05:00AM 44.0600 11.0740 104° East 502 578 34,900  Level FlightAware
05:01AM 44.0380 11.1910 105° East 501 577 34,900  Level FlightAware
05:01AM 44.0210 11.2840 104° East 501 577 34,900  Level FlightAware
05:02AM 44.0050 11.4020 101° East 503 579 34,900  Level FlightAware
05:03AM 43.9880 11.5210 101° East 506 582 34,900  Level FlightAware
05:03AM 43.9730 11.6330 101° East 507 583 34,900  Level FlightAware
05:04AM 43.9590 11.7390 100° East 509 586 34,900  Level FlightAware
05:04AM 43.9450 11.8520 100° East 511 588 34,900  Level FlightAware
05:05AM 43.9310 11.9530 101° East 512 589 34,900 60 Level FlightAware
05:06AM 43.9120 12.0970 100° East 513 590 35,000  Climbing FlightAware
05:06AM 43.8940 12.2230 101° East 513 590 34,900 -120 Descending FlightAware
05:07AM 43.8780 12.3400 101° East 512 589 34,900  Level FlightAware
05:08AM 43.8610 12.4650 101° East 512 589 34,900 60 Level FlightAware
05:08AM 43.8480 12.5610 101° East 511 588 35,000 60 Climbing FlightAware
05:09AM 43.8310 12.6780 101° East 511 588 35,000  Level FlightAware
05:09AM 43.8160 12.7860 101° East 510 587 35,000 -120 Level FlightAware
05:10AM 43.8000 12.9000 101° East 511 588 34,900 -120 Descending FlightAware
05:11AM 43.7790 13.0480 101° East 511 588 34,900 60 Level FlightAware
05:11AM 43.7630 13.1560 102° East 511 588 35,000  Climbing FlightAware
05:12AM 43.7470 13.2680 101° East 510 587 34,900  Descending FlightAware
05:12AM 43.7310 13.3790 101° East 509 586 35,000 60 Climbing FlightAware
05:13AM 43.7150 13.4910 101° East 510 587 35,000  Level FlightAware
05:13AM 43.6980 13.6020 102° East 510 587 35,000 -120 Level FlightAware
05:14AM 43.6810 13.7190 101° East 509 586 34,900  Descending FlightAware
05:15AM 43.6640 13.8280 102° East 507 583 35,000  Climbing FlightAware
05:15AM 43.6470 13.9400 102° East 505 581 34,900  Descending FlightAware
05:16AM 43.6260 14.0530 104° East 505 581 35,000  Climbing FlightAware
05:16AM 43.6040 14.1560 106° East 506 582 34,900  Descending FlightAware
05:17AM 43.5780 14.2690 108° East 504 580 35,000  Climbing FlightAware
05:17AM 43.5550 14.3660 108° East 504 580 34,900  Descending FlightAware
05:18AM 43.5260 14.4860 108° East 502 578 35,000 60 Climbing FlightAware
05:19AM 43.5030 14.5840 108° East 501 577 35,000 -120 Level FlightAware
05:19AM 43.4790 14.6890 107° East 500 575 34,900 -120 Descending FlightAware
05:20AM 43.4550 14.7930 108° East 499 574 34,900  Level FlightAware
05:21AM 43.4230 14.9270 108° East 498 573 34,900 60 Level FlightAware
05:21AM 43.4000 15.0250 108° East 498 573 35,000 60 Climbing FlightAware
05:22AM 43.3710 15.1320 110° East 496 571 35,000 -120 Level FlightAware
05:22AM 43.3340 15.2340 116° Southeast 496 571 34,900  Descending FlightAware
05:23AM 43.2980 15.3360 116° Southeast 498 573 35,000 60 Climbing FlightAware
05:23AM 43.2670 15.4270 115° Southeast 499 574 35,000  Level FlightAware
05:24AM 43.2390 15.5100 115° Southeast 499 574 35,000 -120 Level FlightAware
05:25AM 43.1910 15.6510 115° Southeast 501 577 34,900  Descending FlightAware
05:25AM 43.1550 15.7510 116° Southeast 500 575 35,000 60 Climbing FlightAware
05:26AM 43.1180 15.8530 116° Southeast 499 574 35,000  Level FlightAware
05:27AM 43.0800 15.9570 117° Southeast 498 573 35,000 -120 Level FlightAware
05:27AM 43.0480 16.0470 116° Southeast 497 572 34,900  Descending FlightAware
05:28AM 43.0120 16.1440 117° Southeast 498 573 35,000  Climbing FlightAware
05:28AM 42.9760 16.2450 116° Southeast 498 573 34,900  Descending FlightAware
05:29AM 42.9380 16.3470 117° Southeast 498 573 35,000  Climbing FlightAware
05:29AM 42.9010 16.4480 117° Southeast 499 574 34,900 -120 Descending FlightAware
05:30AM 42.8650 16.5440 117° Southeast 497 572 34,900  Level FlightAware
05:31AM 42.8320 16.6350 116° Southeast 495 570 34,900 60 Level FlightAware
05:31AM 42.7950 16.7330 117° Southeast 495 570 35,000  Climbing FlightAware
05:32AM 42.7610 16.8240 117° Southeast 493 567 34,900  Descending FlightAware
05:32AM 42.7220 16.9280 117° Southeast 494 568 35,000 60 Climbing FlightAware
05:33AM 42.6840 17.0280 117° Southeast 496 571 35,000 -120 Level FlightAware
05:33AM 42.6490 17.1230 117° Southeast 499 574 34,900 -120 Descending FlightAware
05:34AM 42.6170 17.2280 112° Southeast 501 577 34,900 60 Level FlightAware
05:35AM 42.5850 17.3320 113° Southeast 502 578 35,000  Climbing FlightAware
05:35AM 42.5530 17.4360 113° Southeast 501 577 34,900 -120 Descending FlightAware
05:36AM 42.5260 17.5280 112° Southeast 499 574 34,900 60 Level FlightAware
05:36AM 42.4940 17.6340 112° Southeast 498 573 35,000  Climbing FlightAware
05:37AM 42.4620 17.7370 113° Southeast 497 572 34,900 -120 Descending FlightAware
05:38AM 42.4310 17.8390 112° Southeast 496 571 34,900  Level FlightAware
05:38AM 42.4020 17.9310 113° Southeast 495 570 34,900  Level FlightAware
05:39AM 42.3740 18.0240 112° Southeast 496 571 34,900  Level FlightAware
05:39AM 42.3390 18.1360 113° Southeast 497 572 34,900 60 Level FlightAware
05:40AM 42.3100 18.2310 112° Southeast 496 571 35,000  Climbing FlightAware
05:40AM 42.2770 18.3340 113° Southeast 495 570 34,900 -120 Descending FlightAware
05:41AM 42.2450 18.4390 112° Southeast 493 567 34,900  Level FlightAware
05:42AM 42.2160 18.5300 113° Southeast 492 566 34,900  Level FlightAware
05:42AM 42.1840 18.6300 113° Southeast 495 570 34,900 60 Level FlightAware
05:43AM 42.1570 18.7160 113° Southeast 496 571 35,000 600 Climbing FlightAware
05:43AM 42.1230 18.8240 113° Southeast 501 577 35,600 720 Climbing FlightAware
05:44AM 42.0890 18.9290 114° Southeast 501 577 35,900 240 Climbing FlightAware
05:45AM 42.0560 19.0340 113° Southeast 498 573 35,900  Level FlightAware
05:45AM 42.0280 19.1200 114° Southeast 496 571 35,900 60 Level FlightAware
05:46AM 41.9970 19.2180 113° Southeast 495 570 36,000  Climbing FlightAware
05:46AM 41.9650 19.3160 114° Southeast 496 571 35,900 -120 Descending FlightAware
05:47AM 41.9280 19.4280 114° Southeast 494 568 35,900  Level FlightAware
05:48AM 41.8960 19.5270 113° Southeast 492 566 35,900 60 Level FlightAware
05:48AM 41.8660 19.6190 114° Southeast 491 565 36,000 60 Climbing FlightAware
05:49AM 41.8330 19.7200 114° Southeast 490 564 36,000 540 Level FlightAware
05:49AM 41.8010 19.8180 114° Southeast 489 563 36,700 720 Climbing FlightAware
05:50AM 41.7670 19.9200 114° Southeast 491 565 36,900 240 Climbing FlightAware
05:50AM 41.7390 20.0030 114° Southeast 488 562 37,000 60 Climbing FlightAware
05:51AM 41.7050 20.1060 114° Southeast 488 562 37,000 -120 Level FlightAware
05:52AM 41.6730 20.2000 114° Southeast 487 560 36,900 -120 Descending FlightAware
05:52AM 41.6410 20.2950 114° Southeast 485 558 36,900 60 Level FlightAware
05:53AM 41.6060 20.3990 114° Southeast 486 559 37,000  Climbing FlightAware
05:53AM 41.5720 20.4990 114° Southeast 485 558 36,900 -120 Descending FlightAware
05:54AM 41.5450 20.5810 114° Southeast 485 558 36,900 60 Level FlightAware
05:54AM 41.5120 20.6760 115° Southeast 485 558 37,000 60 Climbing FlightAware
05:55AM 41.4760 20.7720 117° Southeast 482 555 37,000  Level FlightAware
05:56AM 41.4340 20.8580 123° Southeast 477 549 37,000 -120 Level FlightAware
05:56AM 41.3910 20.9380 126° Southeast 475 547 36,900  Descending FlightAware
05:57AM 41.3410 21.0280 126° Southeast 475 547 37,000  Climbing FlightAware
05:57AM 41.2950 21.1140 125° Southeast 473 544 36,900  Descending FlightAware
05:58AM 41.2530 21.1890 127° Southeast 474 545 37,000 60 Climbing FlightAware
05:59AM 41.2090 21.2680 126° Southeast 474 545 37,000 -120 Level FlightAware
05:59AM 41.1610 21.3580 125° Southeast 477 549 36,900  Descending FlightAware
06:00AM 41.1210 21.4450 121° Southeast 480 552 37,000  Climbing FlightAware
06:00AM 41.0840 21.5300 120° Southeast 482 555 36,900 -120 Descending FlightAware
06:01AM 41.0420 21.6300 119° Southeast 483 556 36,900 60 Level FlightAware
06:02AM 41.0060 21.7160 119° Southeast 484 557 37,000 60 Climbing FlightAware
06:02AM 40.9720 21.7980 119° Southeast 486 559 37,000 -120 Level FlightAware
06:03AM 40.9290 21.8990 119° Southeast 487 560 36,900 -120 Descending FlightAware
06:03AM 40.8890 21.9930 119° Southeast 487 560 36,900  Level FlightAware
06:04AM 40.8530 22.0760 120° Southeast 486 559 36,900  Level FlightAware
06:04AM 40.8130 22.1540 124° Southeast 483 556 36,900 60 Level FlightAware
06:05AM 40.7560 22.2450 130° Southeast 482 555 37,000  Climbing FlightAware
06:06AM 40.7030 22.3260 131° Southeast 482 555 36,900  Descending FlightAware
06:06AM 40.6520 22.4050 130° Southeast 484 557 37,000  Climbing FlightAware
06:07AM 40.5980 22.4860 131° Southeast 486 559 36,900  Descending FlightAware
06:07AM 40.5510 22.5590 130° Southeast 487 560 37,000  Climbing FlightAware
06:08AM 40.5030 22.6300 132° Southeast 489 563 36,900 -120 Descending FlightAware
06:09AM 40.4450 22.7190 131° Southeast 491 565 36,900  Level FlightAware
06:09AM 40.3910 22.8010 131° Southeast 493 567 36,900  Level FlightAware
06:10AM 40.3430 22.8740 131° Southeast 494 568 36,900  Level FlightAware
06:10AM 40.2890 22.9560 131° Southeast 495 570 36,900 60 Level FlightAware
06:11AM 40.2480 23.0180 131° Southeast 495 570 37,000 60 Climbing FlightAware
06:12AM 40.1770 23.1260 131° Southeast 494 568 37,000  Level FlightAware
06:12AM 40.1180 23.2150 131° Southeast 496 571 37,000 -120 Level FlightAware
06:13AM 40.0720 23.2860 130° Southeast 496 571 36,900 -120 Descending FlightAware
06:13AM 40.0170 23.3680 131° Southeast 497 572 36,900  Level FlightAware
06:14AM 39.9640 23.4470 131° Southeast 498 573 36,900  Level FlightAware
06:14AM 39.9150 23.5210 131° Southeast 497 572 36,900 60 Level FlightAware
06:15AM 39.8590 23.6050 131° Southeast 498 573 37,000 60 Climbing FlightAware
06:16AM 39.8030 23.6890 131° Southeast 498 573 37,000 -120 Level FlightAware
06:16AM 39.7430 23.7780 131° Southeast 494 568 36,900 -120 Descending FlightAware
06:17AM 39.6900 23.8570 131° Southeast 493 567 36,900  Level FlightAware
06:18AM 39.6370 23.9350 131° Southeast 494 568 36,900  Level FlightAware
06:18AM 39.5780 24.0240 131° Southeast 493 567 36,900  Level FlightAware
06:19AM 39.5270 24.0980 132° Southeast 491 565 36,900 60 Level FlightAware
06:19AM 39.4720 24.1790 131° Southeast 491 565 37,000  Climbing FlightAware
06:20AM 39.4200 24.2560 131° Southeast 488 562 36,900  Descending FlightAware
06:21AM 39.3680 24.3320 131° Southeast 488 562 37,000 60 Climbing FlightAware
06:21AM 39.3090 24.4190 131° Southeast 488 562 37,000  Level FlightAware
06:22AM 39.2510 24.5050 131° Southeast 488 562 37,000  Level FlightAware
06:23AM 39.2040 24.5750 131° Southeast 488 562 37,000  Level FlightAware
06:23AM 39.1590 24.6420 131° Southeast 488 562 37,000  Level FlightAware
06:24AM 39.1130 24.7090 131° Southeast 488 562 37,000  Level FlightAware
06:25AM 39.0670 24.7780 131° Southeast 488 562 37,000  Level FlightAware
06:25AM 39.0220 24.8450 131° Southeast 488 562 37,000  Level FlightAware
06:26AM 38.9760 24.9120 131° Southeast 488 562 37,000 -120 Level FlightAware
06:27AM 38.8280 25.1160 133° Southeast 496 571 36,900 -120 Descending FlightAware
06:27AM 38.7820 25.1840 131° Southeast 496 571 36,900  Level FlightAware
06:28AM 38.7360 25.2520 131° Southeast 496 571 36,900  Level FlightAware
06:28AM 38.6900 25.3190 131° Southeast 496 571 36,900  Level FlightAware
06:29AM 38.6430 25.3870 131° Southeast 496 571 36,900 60 Level FlightAware
06:30AM 38.5360 25.5290 134° Southeast 499 574 37,000  Climbing FlightAware
06:30AM 38.4860 25.6000 132° Southeast 499 574 36,900  Descending FlightAware
06:31AM 38.4320 25.6760 132° Southeast 500 575 37,000 60 Climbing FlightAware
06:31AM 38.3740 25.7560 133° Southeast 500 575 37,000  Level FlightAware
06:32AM 38.2660 25.9070 132° Southeast 500 575 37,000  Level FlightAware
06:33AM 38.2060 25.9800 136° Southeast 497 572 37,000 -120 Level FlightAware
06:34AM 38.1440 26.0490 139° Southeast 499 574 36,900 -120 Descending FlightAware
06:34AM 38.0880 26.1110 139° Southeast 499 574 36,900  Level FlightAware
06:35AM 38.0210 26.1850 139° Southeast 498 573 36,900  Level FlightAware
06:35AM 37.9590 26.2540 139° Southeast 497 572 36,900 60 Level FlightAware
06:36AM 37.9050 26.3140 139° Southeast 496 571 37,000  Climbing FlightAware
06:37AM 37.8420 26.3830 139° Southeast 497 572 36,900 -120 Descending FlightAware
06:37AM 37.7800 26.4510 139° Southeast 497 572 36,900  Level FlightAware
06:38AM 37.7190 26.5180 139° Southeast 498 573 36,900  Level FlightAware
06:38AM 37.6600 26.5820 139° Southeast 498 573 36,900  Level FlightAware
06:39AM 37.5970 26.6510 139° Southeast 499 574 36,900  Level FlightAware
06:39AM 37.5340 26.7200 139° Southeast 499 574 36,900 60 Level FlightAware
06:40AM 37.4720 26.7870 139° Southeast 500 575 37,000  Climbing FlightAware
06:41AM 37.4160 26.8480 139° Southeast 501 577 36,900 -120 Descending FlightAware
06:41AM 37.3550 26.9180 138° Southeast 503 579 36,900  Level FlightAware
06:42AM 37.2940 26.9920 136° Southeast 503 579 36,900  Level FlightAware
06:42AM 37.2330 27.0660 136° Southeast 502 578 36,900  Level FlightAware
06:43AM 37.1800 27.1290 137° Southeast 502 578 36,900  Level FlightAware
06:43AM 37.1210 27.1990 137° Southeast 502 578 36,900  Level FlightAware
06:44AM 37.0650 27.2660 136° Southeast 502 578 36,900  Level FlightAware
06:45AM 37.0080 27.3350 136° Southeast 502 578 36,900 60 Level FlightAware
06:45AM 36.9310 27.4240 137° Southeast 502 578 37,000  Climbing FlightAware
06:46AM 36.8690 27.4980 136° Southeast 505 581 36,900 -120 Descending FlightAware
06:47AM 36.8140 27.5620 137° Southeast 505 581 36,900  Level FlightAware
06:47AM 36.7480 27.6390 137° Southeast 506 582 36,900 60 Level FlightAware
06:48AM 36.6940 27.7030 136° Southeast 507 583 37,000  Climbing FlightAware
06:48AM 36.6330 27.7740 137° Southeast 508 585 36,900 -120 Descending FlightAware
06:49AM 36.5670 27.8500 137° Southeast 509 586 36,900  Level FlightAware
06:49AM 36.5120 27.9140 137° Southeast 510 587 36,900  Level FlightAware
06:50AM 36.4490 27.9880 137° Southeast 510 587 36,900  Level FlightAware
06:51AM 36.3890 28.0570 137° Southeast 509 586 36,900  Level FlightAware
06:51AM 36.3290 28.1330 134° Southeast 509 586 36,900  Level FlightAware
06:52AM 36.2830 28.2080 127° Southeast 510 587 36,900 60 Level FlightAware
06:52AM 36.2330 28.2930 126° Southeast 510 587 37,000 60 Climbing FlightAware
06:53AM 36.1840 28.3780 126° Southeast 510 587 37,000  Level FlightAware
06:54AM 36.1370 28.4590 126° Southeast 511 588 37,000 -120 Level FlightAware
06:54AM 36.0880 28.5430 126° Southeast 512 589 36,900 -120 Descending FlightAware
06:55AM 36.0370 28.6290 126° Southeast 512 589 36,900  Level FlightAware
06:55AM 35.9890 28.7100 126° Southeast 512 589 36,900 60 Level FlightAware
06:56AM 35.9410 28.7910 126° Southeast 513 590 37,000  Climbing FlightAware
06:57AM 35.8880 28.8800 126° Southeast 512 589 36,900 -120 Descending FlightAware
06:57AM 35.8430 28.9550 126° Southeast 512 589 36,900  Level FlightAware
06:58AM 35.7970 29.0320 126° Southeast 512 589 36,900 60 Level FlightAware
06:58AM 35.7520 29.1080 126° Southeast 512 589 37,000 60 Climbing FlightAware
06:59AM 35.7070 29.1840 126° Southeast 512 589 37,000 -120 Level FlightAware
07:00AM 35.6460 29.2860 126° Southeast 512 589 36,900 -120 Descending FlightAware
07:00AM 35.5970 29.3660 127° Southeast 511 588 36,900 60 Level FlightAware
07:01AM 35.5450 29.4510 127° Southeast 510 587 37,000  Climbing FlightAware
07:01AM 35.4800 29.5580 127° Southeast 512 589 36,900 -120 Descending FlightAware
07:02AM 35.4270 29.6460 126° Southeast 511 588 36,900  Level FlightAware
07:03AM 35.3750 29.7310 127° Southeast 511 588 36,900 60 Level FlightAware
07:03AM 35.3260 29.8110 127° Southeast 512 589 37,000  Climbing FlightAware
07:04AM 35.2740 29.8960 127° Southeast 512 589 36,900  Descending FlightAware
07:04AM 35.2260 29.9740 127° Southeast 514 592 37,000  Climbing FlightAware
07:05AM 35.1730 30.0590 127° Southeast 511 588 36,900 -120 Descending FlightAware
07:06AM 35.1060 30.1630 128° Southeast 515 593 36,900 60 Level FlightAware
07:06AM 35.0520 30.2500 127° Southeast 515 593 37,000  Climbing FlightAware
07:07AM 34.9980 30.3370 127° Southeast 510 587 36,900 -120 Descending FlightAware
07:08AM 34.9520 30.4120 127° Southeast 509 586 36,900  Level FlightAware
07:08AM 34.8990 30.4950 128° Southeast 509 586 36,900  Level FlightAware
07:09AM 34.8500 30.5740 127° Southeast 509 586 36,900  Level FlightAware
07:09AM 34.8010 30.6510 128° Southeast 508 585 36,900 60 Level FlightAware
07:10AM 34.7400 30.7460 128° Southeast 508 585 37,000 60 Climbing FlightAware
07:10AM 34.7000 30.8100 127° Southeast 508 585 37,000 -120 Level FlightAware
07:11AM 34.6440 30.8990 127° Southeast 507 583 36,900 -120 Descending FlightAware
07:12AM 34.5900 30.9830 128° Southeast 507 583 36,900 60 Level FlightAware
07:12AM 34.5440 31.0540 128° Southeast 506 582 37,000  Climbing FlightAware
07:13AM 34.4940 31.1320 128° Southeast 507 583 36,900 -120 Descending FlightAware
07:13AM 34.4400 31.2170 128° Southeast 504 580 36,900 60 Level FlightAware
07:14AM 34.3880 31.2970 128° Southeast 504 580 37,000 60 Climbing FlightAware
07:15AM 34.3380 31.3750 128° Southeast 503 579 37,000  Level FlightAware
07:15AM 34.2800 31.4650 128° Southeast 502 578 37,000 -120 Level FlightAware
07:16AM 34.2300 31.5410 128° Southeast 502 578 36,900  Descending FlightAware
07:16AM 34.1780 31.6220 128° Southeast 501 577 37,000 60 Climbing FlightAware
07:17AM 34.1270 31.6990 129° Southeast 502 578 37,000  Level FlightAware
07:18AM 34.0770 31.7770 128° Southeast 501 577 37,000 -120 Level FlightAware
07:18AM 34.0250 31.8560 128° Southeast 500 575 36,900  Descending FlightAware
07:19AM 33.9740 31.9340 128° Southeast 501 577 37,000 60 Climbing FlightAware
07:19AM 33.9300 32.0020 128° Southeast 500 575 37,000  Level FlightAware
07:20AM 33.8660 32.0980 129° Southeast 501 577 37,000  Level FlightAware
07:21AM 33.8160 32.1750 128° Southeast 502 578 37,000 -360 Level FlightAware
07:21AM 33.7610 32.2580 129° Southeast 500 575 36,600 -900 Descending FlightAware
07:22AM 33.7130 32.3310 128° Southeast 497 572 36,000 -1,140 Descending FlightAware
07:22AM 33.6610 32.4100 128° Southeast 496 571 35,300 -1,140 Descending FlightAware
07:23AM 33.6140 32.4800 129° Southeast 499 574 34,700 -1,200 Descending FlightAware
07:24AM 33.5600 32.5620 128° Southeast 498 573 33,900 -1,200 Descending FlightAware
07:24AM 33.5130 32.6320 129° Southeast 495 570 33,300 -1,020 Descending FlightAware
07:25AM 33.4590 32.7140 128° Southeast 495 570 32,700 -1,020 Descending FlightAware
07:25AM 33.4100 32.7870 129° Southeast 498 573 32,200 -840 Descending FlightAware
07:26AM 33.3580 32.8650 129° Southeast 495 570 31,800 -780 Descending FlightAware
07:26AM 33.3090 32.9380 129° Southeast 492 566 31,300 -600 Descending FlightAware
07:27AM 33.2630 33.0060 129° Southeast 487 560 31,100 -360 Descending FlightAware
07:28AM 33.2150 33.0780 129° Southeast 482 555 30,900 -480 Descending FlightAware
07:28AM 33.1640 33.1540 129° Southeast 483 556 30,600 -1,440 Descending FlightAware
07:29AM 33.1200 33.2190 129° Southeast 472 543 29,300 -2,760 Descending FlightAware
07:29AM 33.0630 33.3040 129° Southeast 460 529 27,400 -2,880 Descending FlightAware
07:30AM 33.0160 33.3730 129° Southeast 450 518 25,800 -2,820 Descending FlightAware
07:31AM 32.9710 33.4400 129° Southeast 445 512 24,100 -2,640 Descending FlightAware
07:31AM 32.9280 33.5030 129° Southeast 446 513 22,900 -1,980 Descending FlightAware
07:32AM 32.8830 33.5690 129° Southeast 442 509 21,900 -1,860 Descending FlightAware
07:32AM 32.8360 33.6380 129° Southeast 434 499 20,700 -1,920 Descending FlightAware
07:33AM 32.7900 33.7060 129° Southeast 433 498 19,600 -1,860 Descending FlightAware
07:33AM 32.7510 33.7640 129° Southeast 426 490 18,600 -1,860 Descending FlightAware
07:34AM 32.7050 33.8310 129° Southeast 417 480 17,500 -1,860 Descending FlightAware
07:35AM 32.6620 33.8940 129° Southeast 411 473 16,400 -1,800 Descending FlightAware
07:35AM 32.6180 33.9580 129° Southeast 402 463 15,300 -1,740 Descending FlightAware
07:36AM 32.5800 34.0140 129° Southeast 384 442 14,400 -1,680 Descending FlightAware
07:36AM 32.5410 34.0710 129° Southeast 368 423 13,400 -1,620 Descending FlightAware
07:37AM 32.5030 34.1270 129° Southeast 353 406 12,500 -1,560 Descending FlightAware
07:37AM 32.4740 34.1640 133° Southeast 343 395 11,800 -1,380 Descending FlightAware
07:38AM 32.4470 34.1830 149° Southeast 335 386 11,400 -1,500 Descending FlightAware
07:38AM 32.3960 34.2080 158° South 324 373 10,400 -1,500 Descending FlightAware
07:39AM 32.3660 34.2220 158° South 317 365 10,000 -1,020 Descending FlightAware
07:39AM 32.3540 34.2280 157° South 310 357 9,900 -360 Descending FlightAware
07:39AM 32.3210 34.2430 159° South 278 320 9,800 -720 Descending FlightAware
07:40AM 32.3010 34.2520 159° South 272 313 9,400 -1,980 Descending FlightAware
07:40AM 32.2730 34.2660 157° South 278 320 8,500 -2,100 Descending FlightAware
07:40AM 32.2540 34.2750 158° South 277 319 8,000 -720 Descending FlightAware
07:41AM 32.2250 34.2890 158° South 277 319 8,000 -1,620 Level FlightAware
07:41AM 32.2220 34.2940 125° Southeast 273 314 7,100 -4,200 Descending FlightAware
07:41AM 32.1990 34.3190 137° Southeast 272 313 6,200 -1,200 Descending FlightAware
07:42AM 32.1800 34.3440 132° Southeast 272 313 6,200 -1,080 Level FlightAware
07:42AM 32.1550 34.3810 129° Southeast 249 287 5,200 -1,740 Descending FlightAware
07:42AM 32.1410 34.3970 136° Southeast 249 287 4,900 -480 Descending FlightAware
07:43AM 32.1240 34.4180 134° Southeast 249 287 4,900 -480 Level FlightAware
07:43AM 32.1240 34.4170 270° West 250 288 4,500 -1,380 Descending FlightAware
07:44AM 32.0860 34.4610 136° Southeast 241 277 3,900 -1,200 Descending FlightAware
07:44AM 32.0610 34.4910 135° Southeast 237 273 3,500 -780 Descending FlightAware
07:44AM 32.0440 34.5110 135° Southeast 231 266 3,200 -840 Descending FlightAware
07:45AM 32.0310 34.5260 136° Southeast 224 258 3,000 -600 Descending FlightAware
07:45AM 32.0230 34.5420 121° Southeast 212 244 2,900 -300 Descending FlightAware
07:45AM 32.0210 34.5490 109° East 204 235 2,900  Level FlightAware
07:45AM 32.0140 34.5730 109° East 194 223 2,900  Level FlightAware
07:46AM 32.0090 34.5910 108° East 195 224 2,900  Level FlightAware
07:46AM 32.0020 34.6180 107° East 191 220 2,900  Level FlightAware
07:47AM 31.9960 34.6430 106° East 189 217 2,900  Level FlightAware
07:47AM 31.9910 34.6600 109° East 191 220 2,900  Level FlightAware
07:47AM 31.9850 34.6800 109° East 181 208 2,900  Level FlightAware
07:48AM 31.9780 34.7110 105° East 175 201 2,900 -720 Level FlightAware
07:49AM 31.9890 34.7500 72° East 172 198 2,100 -1,200 Descending FlightAware
07:49AM 31.9930 34.7680 75° East 167 192 1,800 -900 Descending FlightAware
07:49AM 31.9950 34.7850 82° East 164 189 1,500 -420 Descending FlightAware
07:50AM 31.9980 34.8060 80° East 164 189 1,500 -840 Level FlightAware
07:50AM 32.0020 34.8290 78° East 161 185 800 -1,320 Descending FlightAware
07:51AM 32.0060 34.8530 79° East 155 178 400 -420 Descending FlightAware
07:51AM 32.0100 34.8760 78° East 157 181 400  Level FlightAware